createdAt,value
2023-03-01T00:01:39.162Z,9.85
2023-03-01T00:04:05.869Z,10.13
2023-03-01T00:06:32.976Z,8.73
2023-03-01T00:08:59.908Z,9.80
2023-03-01T00:11:29.190Z,9.85
2023-03-01T00:13:58.537Z,9.18
2023-03-01T00:16:29.486Z,9.00
2023-03-01T00:18:57.616Z,9.35
2023-03-01T00:21:24.998Z,8.60
2023-03-01T00:23:51.992Z,8.52
2023-03-01T00:26:20.315Z,9.18
2023-03-01T00:28:47.466Z,8.60
2023-03-01T00:31:16.770Z,9.18
2023-03-01T00:33:45.145Z,10.20
2023-03-01T00:36:14.415Z,8.98
2023-03-01T00:38:42.941Z,9.77
2023-03-01T00:41:12.772Z,9.43
2023-03-01T00:43:39.636Z,9.40
2023-03-01T00:46:08.869Z,10.23
2023-03-01T00:48:36.322Z,8.60
2023-03-01T00:51:09.627Z,8.13
2023-03-01T00:53:36.868Z,9.73
2023-03-01T00:56:05.083Z,8.32
2023-03-01T00:58:31.918Z,8.18
2023-03-01T01:00:58.820Z,8.93
2023-03-01T01:03:25.925Z,9.50
2023-03-01T01:05:53.186Z,9.95
2023-03-01T01:08:21.695Z,8.55
2023-03-01T01:10:48.471Z,9.55
2023-03-01T01:13:15.313Z,8.25
2023-03-01T01:15:42.382Z,10.38
2023-03-01T01:18:09.476Z,9.95
2023-03-01T01:20:36.834Z,9.13
2023-03-01T01:23:05.741Z,9.50
2023-03-01T01:25:35.449Z,11.25
2023-03-01T01:28:02.174Z,11.18
2023-03-01T01:30:28.886Z,11.90
2023-03-01T01:32:55.558Z,11.18
2023-03-01T01:35:22.279Z,11.32
2023-03-01T01:37:49.023Z,10.38
2023-03-01T01:40:15.702Z,12.43
2023-03-01T01:42:43.736Z,11.65
2023-03-01T01:45:33.298Z,10.02
2023-03-01T01:48:07.865Z,8.23
2023-03-01T01:50:36.427Z,10.25
2023-03-01T01:53:03.194Z,9.73
2023-03-01T01:55:29.990Z,8.55
2023-03-01T01:58:02.409Z,8.90
2023-03-01T02:00:30.904Z,10.35
2023-03-01T02:03:01.339Z,9.50
2023-03-01T02:05:35.870Z,9.57
2023-03-01T02:08:02.793Z,9.40
2023-03-01T02:10:30.056Z,11.00
2023-03-01T02:12:59.037Z,8.68
2023-03-01T02:15:25.840Z,8.85
2023-03-01T02:17:53.890Z,9.18
2023-03-01T02:20:26.114Z,10.52
2023-03-01T02:22:54.742Z,12.05
2023-03-01T02:25:31.201Z,11.52
2023-03-01T02:28:06.138Z,10.00
2023-03-01T02:30:35.305Z,8.65
2023-03-01T02:33:04.989Z,8.70
2023-03-01T02:35:34.757Z,9.98
2023-03-01T02:38:04.235Z,10.80
2023-03-01T02:40:34.203Z,10.45
2023-03-01T02:43:00.991Z,8.50
2023-03-01T02:45:28.115Z,12.23
2023-03-01T02:47:56.929Z,9.27
2023-03-01T02:50:40.346Z,10.43
2023-03-01T02:53:12.128Z,8.37
2023-03-01T02:55:38.930Z,10.13
2023-03-01T02:58:05.896Z,10.15
2023-03-01T03:00:38.453Z,10.23
2023-03-01T03:03:07.742Z,11.40
2023-03-01T03:05:35.562Z,9.32
2023-03-01T03:08:04.019Z,9.20
2023-03-01T03:10:32.676Z,10.15
2023-03-01T03:13:01.450Z,10.07
2023-03-01T03:15:29.036Z,10.23
2023-03-01T03:17:57.017Z,10.32
2023-03-01T03:20:27.320Z,10.52
2023-03-01T03:22:55.971Z,8.77
2023-03-01T03:25:23.364Z,9.52
2023-03-01T03:27:51.858Z,9.40
2023-03-01T03:30:20.251Z,8.80
2023-03-01T03:32:48.424Z,9.75
2023-03-01T03:35:15.186Z,9.93
2023-03-01T03:37:43.273Z,9.02
2023-03-01T03:40:11.414Z,9.23
2023-03-01T03:42:38.112Z,8.88
2023-03-01T03:45:05.532Z,10.18
2023-03-01T03:47:32.300Z,9.55
2023-03-01T03:49:59.001Z,9.25
2023-03-01T03:52:25.845Z,9.80
2023-03-01T03:54:53.891Z,8.45
2023-03-01T03:57:20.579Z,8.85
2023-03-01T03:59:47.249Z,9.45
2023-03-01T04:02:13.955Z,9.75
2023-03-01T04:04:40.757Z,9.45
2023-03-01T04:07:07.493Z,10.93
2023-03-01T04:09:34.336Z,9.02
2023-03-01T04:12:02.368Z,8.77
2023-03-01T04:14:29.091Z,9.73
2023-03-01T04:16:55.816Z,12.10
2023-03-01T04:19:22.529Z,10.25
2023-03-01T04:21:49.234Z,9.10
2023-03-01T04:24:15.917Z,9.85
2023-03-01T04:26:42.667Z,9.88
2023-03-01T04:29:10.806Z,8.77
2023-03-01T04:31:37.632Z,10.23
2023-03-01T04:34:04.326Z,9.32
2023-03-01T04:36:31.746Z,8.88
2023-03-01T04:38:58.707Z,9.73
2023-03-01T04:41:26.155Z,8.93
2023-03-01T04:43:52.912Z,9.10
2023-03-01T04:46:21.884Z,9.95
2023-03-01T04:48:48.830Z,9.20
2023-03-01T04:51:15.620Z,10.23
2023-03-01T04:53:43.485Z,9.55
2023-03-01T04:56:10.593Z,9.70
2023-03-01T04:58:37.980Z,9.75
2023-03-01T05:01:10.480Z,9.43
2023-03-01T05:03:38.504Z,8.50
2023-03-01T05:06:05.575Z,10.88
2023-03-01T05:08:32.262Z,10.05
2023-03-01T05:10:59.006Z,9.38
2023-03-01T05:13:25.744Z,9.27
2023-03-01T05:15:56.566Z,9.27
2023-03-01T05:18:23.552Z,10.15
2023-03-01T05:20:51.593Z,9.65
2023-03-01T05:23:18.347Z,9.82
2023-03-01T05:25:45.919Z,9.18
2023-03-01T05:28:13.393Z,9.85
2023-03-01T05:30:40.774Z,9.57
2023-03-01T05:33:07.809Z,8.65
2023-03-01T05:35:34.548Z,10.40
2023-03-01T05:38:02.661Z,9.52
2023-03-01T05:40:29.351Z,10.93
2023-03-01T05:42:57.391Z,11.20
2023-03-01T05:45:25.670Z,10.85
2023-03-01T05:47:53.279Z,8.98
2023-03-01T05:50:22.658Z,9.27
2023-03-01T05:52:51.341Z,10.15
2023-03-01T05:55:21.256Z,9.63
2023-03-01T05:57:48.533Z,10.23
2023-03-01T06:00:18.007Z,10.60
2023-03-01T06:02:44.788Z,9.20
2023-03-01T06:05:13.330Z,9.35
2023-03-01T06:07:40.174Z,10.20
2023-03-01T06:10:08.515Z,9.45
2023-03-01T06:12:38.061Z,10.23
2023-03-01T06:15:06.689Z,10.13
2023-03-01T06:17:35.243Z,10.57
2023-03-01T06:20:01.978Z,10.18
2023-03-01T06:22:28.821Z,9.70
2023-03-01T06:24:55.524Z,8.77
2023-03-01T06:27:22.275Z,10.00
2023-03-01T06:29:50.298Z,9.75
2023-03-01T06:32:17.377Z,10.35
2023-03-01T06:34:44.127Z,9.10
2023-03-01T06:37:11.360Z,10.00
2023-03-01T06:39:38.464Z,10.88
2023-03-01T06:42:05.290Z,10.10
2023-03-01T06:44:32.601Z,9.55
2023-03-01T06:47:00.850Z,10.13
2023-03-01T06:49:27.746Z,10.07
2023-03-01T06:51:54.478Z,9.93
2023-03-01T06:54:21.286Z,10.35
2023-03-01T06:56:48.560Z,9.48
2023-03-01T06:59:15.553Z,10.25
2023-03-01T07:01:42.308Z,10.23
2023-03-01T07:04:10.422Z,10.48
2023-03-01T07:06:37.211Z,10.15
2023-03-01T07:09:04.134Z,10.98
2023-03-01T07:11:30.877Z,10.57
2023-03-01T07:13:57.572Z,9.55
2023-03-01T07:16:24.366Z,9.27
2023-03-01T07:18:51.064Z,11.52
2023-03-01T07:21:19.108Z,10.95
2023-03-01T07:23:48.580Z,11.50
2023-03-01T07:26:15.300Z,11.38
2023-03-01T07:28:42.012Z,9.20
2023-03-01T07:31:08.766Z,10.45
2023-03-01T07:33:35.494Z,7.90
2023-03-01T07:36:04.482Z,9.93
2023-03-01T07:38:33.072Z,10.05
2023-03-01T07:41:00.680Z,10.32
2023-03-01T07:43:27.641Z,10.48
2023-03-01T07:45:54.442Z,8.57
2023-03-01T07:48:21.240Z,10.30
2023-03-01T07:50:47.984Z,9.57
2023-03-01T07:53:14.701Z,11.00
2023-03-01T07:55:42.731Z,9.75
2023-03-01T07:58:09.445Z,9.80
2023-03-01T08:00:36.153Z,9.70
2023-03-01T08:03:03.256Z,11.60
2023-03-01T08:05:30.239Z,7.68
2023-03-01T08:07:57.029Z,11.20
2023-03-01T08:10:23.779Z,11.88
2023-03-01T08:12:53.445Z,11.15
2023-03-01T08:15:20.176Z,10.95
2023-03-01T08:17:49.389Z,13.75
2023-03-01T08:20:18.815Z,11.68
2023-03-01T08:22:46.607Z,9.85
2023-03-01T08:25:13.308Z,11.93
2023-03-01T08:27:40.035Z,11.20
2023-03-01T08:30:09.961Z,13.95
2023-03-01T08:32:38.026Z,11.50
2023-03-01T08:35:05.588Z,14.73
2023-03-01T08:37:32.397Z,12.60
2023-03-01T08:39:59.362Z,10.25
2023-03-01T08:42:26.121Z,12.30
2023-03-01T08:44:52.828Z,14.55
2023-03-01T08:47:20.918Z,12.57
2023-03-01T08:49:47.636Z,10.52
2023-03-01T08:52:14.514Z,11.43
2023-03-01T08:54:41.251Z,12.20
2023-03-01T08:57:07.942Z,11.57
2023-03-01T08:59:34.749Z,12.35
2023-03-01T09:02:01.465Z,12.18
2023-03-01T09:04:29.542Z,11.00
2023-03-01T09:06:56.275Z,12.80
2023-03-01T09:09:23.180Z,9.40
2023-03-01T09:11:49.962Z,11.20
2023-03-01T09:14:16.759Z,13.32
2023-03-01T09:16:43.898Z,13.25
2023-03-01T09:19:10.608Z,9.88
2023-03-01T09:21:41.082Z,10.02
2023-03-01T09:24:12.605Z,12.98
2023-03-01T09:26:39.443Z,11.57
2023-03-01T09:29:06.271Z,9.98
2023-03-01T09:31:33.018Z,12.00
2023-03-01T09:33:59.775Z,11.00
2023-03-01T09:36:26.542Z,11.90
2023-03-01T09:38:54.686Z,11.52
2023-03-01T09:41:45.388Z,9.75
2023-03-01T09:44:28.147Z,11.48
2023-03-01T09:46:55.191Z,14.05
2023-03-01T09:49:26.039Z,11.35
2023-03-01T09:51:59.993Z,12.20
2023-03-01T09:57:14.054Z,13.23
2023-03-01T09:59:54.072Z,10.70
2023-03-01T10:02:27.502Z,11.70
2023-03-01T10:04:58.367Z,13.13
2023-03-01T10:07:37.497Z,10.07
2023-03-01T10:10:08.691Z,10.57
2023-03-01T10:12:38.402Z,11.90
2023-03-01T10:15:08.478Z,11.02
2023-03-01T10:17:38.867Z,12.32
2023-03-01T10:20:19.064Z,10.77
2023-03-01T10:22:45.913Z,12.18
2023-03-01T10:25:16.375Z,15.93
2023-03-01T10:27:52.435Z,10.82
2023-03-01T10:30:23.712Z,12.60
2023-03-01T10:32:53.954Z,13.23
2023-03-01T10:35:23.303Z,11.05
2023-03-01T10:38:04.051Z,14.80
2023-03-01T10:40:32.696Z,8.75
2023-03-01T10:43:02.510Z,11.88
2023-03-01T10:45:34.443Z,10.25
2023-03-01T10:48:06.668Z,9.23
2023-03-01T10:50:33.652Z,11.70
2023-03-01T10:53:01.792Z,11.30
2023-03-01T10:55:35.533Z,11.45
2023-03-01T10:58:16.718Z,11.82
2023-03-01T11:00:51.691Z,10.82
2023-03-01T11:03:22.822Z,11.27
2023-03-01T11:05:56.265Z,12.30
2023-03-01T11:08:36.163Z,12.20
2023-03-01T11:11:23.448Z,13.70
2023-03-01T11:13:54.263Z,9.43
2023-03-01T11:16:27.083Z,11.38
2023-03-01T11:18:58.419Z,10.07
2023-03-01T11:21:27.618Z,10.70
2023-03-01T11:23:54.538Z,10.70
2023-03-01T11:26:23.141Z,10.57
2023-03-01T11:28:54.850Z,12.98
2023-03-01T11:31:24.300Z,12.85
2023-03-01T11:33:56.460Z,10.82
2023-03-01T11:36:30.853Z,11.18
2023-03-01T11:39:03.145Z,11.10
2023-03-01T11:41:34.890Z,10.73
2023-03-01T11:44:04.678Z,12.15
2023-03-01T11:46:54.506Z,9.93
2023-03-01T11:49:40.823Z,10.52
2023-03-01T11:52:13.955Z,11.43
2023-03-01T11:54:52.128Z,10.67
2023-03-01T11:57:43.541Z,9.43
2023-03-01T12:00:24.654Z,12.00
2023-03-01T12:03:16.319Z,9.45
2023-03-01T12:06:10.029Z,9.50
2023-03-01T12:08:42.369Z,13.48
2023-03-01T12:11:19.665Z,11.00
2023-03-01T12:14:16.581Z,9.43
2023-03-01T12:17:01.033Z,10.65
2023-03-01T12:19:42.425Z,13.50
2023-03-01T12:22:27.663Z,12.13
2023-03-01T12:25:13.457Z,8.63
2023-03-01T12:28:05.472Z,10.65
2023-03-01T12:30:49.317Z,10.25
2023-03-01T12:33:27.320Z,10.80
2023-03-01T12:36:14.812Z,10.73
2023-03-01T12:38:43.480Z,9.35
2023-03-01T12:41:42.917Z,8.30
2023-03-01T12:44:27.636Z,8.65
2023-03-01T12:47:08.198Z,9.52
2023-03-01T12:49:39.958Z,10.63
2023-03-01T12:52:15.187Z,10.20
2023-03-01T12:54:42.964Z,9.82
2023-03-01T12:57:15.759Z,9.80
2023-03-01T12:59:50.012Z,9.05
2023-03-01T13:02:24.766Z,13.32
2023-03-01T13:05:09.782Z,11.20
2023-03-01T13:07:42.265Z,10.48
2023-03-01T13:10:20.958Z,9.65
2023-03-01T13:12:53.469Z,9.02
2023-03-01T13:15:29.113Z,8.63
2023-03-01T13:17:58.374Z,9.65
2023-03-01T13:20:31.320Z,9.40
2023-03-01T13:23:04.680Z,11.85
2023-03-01T13:25:37.695Z,10.20
2023-03-01T13:28:40.350Z,10.00
2023-03-01T13:31:08.605Z,9.77
2023-03-01T13:33:46.277Z,11.80
2023-03-01T13:36:47.155Z,10.68
2023-03-01T13:39:29.214Z,9.95
2023-03-01T13:41:56.748Z,10.30
2023-03-01T13:44:27.979Z,9.20
2023-03-01T13:46:58.573Z,9.85
2023-03-01T13:49:45.195Z,10.32
2023-03-01T13:52:37.736Z,9.23
2023-03-01T13:55:06.285Z,8.20
2023-03-01T13:57:36.730Z,10.27
2023-03-01T14:00:05.224Z,12.45
2023-03-01T14:02:31.970Z,12.48
2023-03-01T14:05:01.218Z,8.95
2023-03-01T14:07:29.267Z,9.02
2023-03-01T14:09:58.604Z,9.13
2023-03-01T14:12:40.915Z,9.05
2023-03-01T14:15:16.621Z,9.30
2023-03-01T14:17:53.650Z,11.90
2023-03-01T14:20:24.564Z,10.02
2023-03-01T14:22:55.489Z,9.25
2023-03-01T14:25:26.146Z,9.18
2023-03-01T14:27:57.386Z,10.02
2023-03-01T14:30:26.374Z,9.40
2023-03-01T14:32:54.644Z,11.20
2023-03-01T14:35:25.336Z,9.98
2023-03-01T14:37:52.271Z,7.93
2023-03-01T14:40:25.292Z,8.45
2023-03-01T14:42:53.452Z,8.55
2023-03-01T14:45:20.460Z,9.65
2023-03-01T14:47:48.203Z,9.63
2023-03-01T14:50:24.879Z,9.80
2023-03-01T14:52:57.417Z,9.00
2023-03-01T14:55:29.718Z,11.30
2023-03-01T14:57:57.909Z,9.10
2023-03-01T15:00:27.022Z,11.93
2023-03-01T15:02:56.099Z,9.60
2023-03-01T15:05:29.249Z,11.50
2023-03-01T15:07:57.447Z,9.47
2023-03-01T15:10:25.616Z,11.85
2023-03-01T15:12:52.959Z,11.45
2023-03-01T15:15:39.546Z,10.98
2023-03-01T15:18:15.429Z,9.63
2023-03-01T15:20:43.772Z,10.40
2023-03-01T15:23:21.356Z,9.13
2023-03-01T15:25:48.239Z,10.45
2023-03-01T15:28:20.829Z,9.38
2023-03-01T15:30:55.520Z,8.65
2023-03-01T15:33:31.766Z,9.05
2023-03-01T15:36:00.939Z,10.75
2023-03-01T15:38:34.555Z,8.02
2023-03-01T15:41:02.964Z,8.27
2023-03-01T15:43:42.330Z,9.85
2023-03-01T15:46:21.593Z,8.57
2023-03-01T15:48:49.576Z,8.90
2023-03-01T15:51:17.784Z,8.45
2023-03-01T15:53:54.498Z,9.52
2023-03-01T15:56:21.610Z,8.40
2023-03-01T15:58:48.351Z,8.30
2023-03-01T16:01:16.215Z,8.38
2023-03-01T16:03:42.927Z,8.25
2023-03-01T16:06:10.749Z,8.35
2023-03-01T16:08:39.245Z,8.15
2023-03-01T16:11:09.962Z,7.15
2023-03-01T16:13:36.715Z,8.23
2023-03-01T16:16:03.865Z,9.20
2023-03-01T16:18:30.619Z,7.60
2023-03-01T16:20:57.337Z,8.35
2023-03-01T16:23:24.017Z,9.50
2023-03-01T16:25:52.242Z,8.13
2023-03-01T16:28:18.958Z,8.88
2023-03-01T16:30:47.961Z,9.25
2023-03-01T16:33:31.498Z,7.60
2023-03-01T16:36:01.636Z,9.80
2023-03-01T16:38:28.720Z,8.07
2023-03-01T16:40:56.767Z,8.73
2023-03-01T16:43:23.600Z,9.88
2023-03-01T16:45:50.360Z,9.45
2023-03-01T16:48:17.189Z,9.75
2023-03-01T16:50:43.923Z,8.85
2023-03-01T16:53:10.827Z,10.30
2023-03-01T16:55:37.596Z,9.68
2023-03-01T16:58:05.777Z,11.93
2023-03-01T17:00:32.520Z,10.07
2023-03-01T17:02:59.271Z,9.43
2023-03-01T17:05:26.180Z,10.43
2023-03-01T17:07:52.942Z,10.50
2023-03-01T17:10:20.879Z,9.25
2023-03-01T17:12:49.215Z,8.80
2023-03-01T17:15:17.488Z,12.85
2023-03-01T17:17:44.207Z,10.13
2023-03-01T17:20:12.055Z,11.07
2023-03-01T17:22:38.863Z,9.45
2023-03-01T17:25:08.394Z,11.35
2023-03-01T17:27:35.103Z,10.85
2023-03-01T17:30:01.978Z,10.98
2023-03-01T17:32:30.204Z,11.38
2023-03-01T17:34:56.996Z,11.43
2023-03-01T17:37:23.737Z,11.07
2023-03-01T17:39:50.534Z,11.35
2023-03-01T17:42:17.292Z,11.18
2023-03-01T17:44:44.198Z,11.13
2023-03-01T17:47:11.210Z,12.27
2023-03-01T17:49:39.232Z,12.15
2023-03-01T17:52:05.976Z,12.20
2023-03-01T17:54:33.083Z,12.85
2023-03-01T17:57:00.039Z,13.95
2023-03-01T17:59:26.853Z,12.10
2023-03-01T18:01:53.561Z,11.80
2023-03-01T18:04:20.535Z,12.43
2023-03-01T18:06:48.620Z,11.45
2023-03-01T18:09:15.392Z,9.45
2023-03-01T18:11:42.110Z,13.18
2023-03-01T18:14:08.823Z,12.70
2023-03-01T18:16:35.930Z,16.00
2023-03-01T18:19:03.353Z,16.13
2023-03-01T18:21:30.703Z,13.77
2023-03-01T18:23:58.947Z,15.20
2023-03-01T18:26:26.010Z,12.73
2023-03-01T18:28:53.170Z,15.93
2023-03-01T18:31:21.675Z,16.48
2023-03-01T18:33:49.595Z,17.05
2023-03-01T18:36:19.622Z,15.90
2023-03-01T18:38:46.919Z,13.23
2023-03-01T18:41:15.422Z,17.50
2023-03-01T18:43:42.393Z,14.43
2023-03-01T18:46:09.227Z,10.98
2023-03-01T18:48:35.981Z,13.43
2023-03-01T18:51:10.745Z,11.88
2023-03-01T18:53:37.736Z,13.07
2023-03-01T18:56:05.085Z,12.70
2023-03-01T18:58:33.298Z,11.50
2023-03-01T19:01:00.253Z,10.93
2023-03-01T19:03:27.141Z,11.55
2023-03-01T19:05:53.837Z,11.77
2023-03-01T19:08:20.618Z,11.48
2023-03-01T19:10:54.649Z,10.73
2023-03-01T19:15:49.343Z,11.55
2023-03-01T19:18:16.341Z,11.85
2023-03-01T19:20:44.058Z,12.23
2023-03-01T19:23:13.626Z,12.35
2023-03-01T19:25:40.523Z,11.63
2023-03-01T19:28:07.345Z,12.07
2023-03-01T19:30:34.144Z,11.98
2023-03-01T19:33:02.161Z,11.80
2023-03-01T19:35:29.206Z,13.05
2023-03-01T19:37:55.970Z,13.75
2023-03-01T19:40:22.760Z,13.40
2023-03-01T19:42:49.496Z,12.35
2023-03-01T19:45:22.412Z,12.77
2023-03-01T19:47:52.167Z,12.70
2023-03-01T19:50:20.310Z,11.73
2023-03-01T19:52:46.995Z,13.27
2023-03-01T19:55:14.012Z,13.38
2023-03-01T19:57:40.698Z,11.70
2023-03-01T20:00:10.192Z,12.40
2023-03-01T20:02:37.084Z,13.05
2023-03-01T20:05:04.391Z,12.73
2023-03-01T20:07:32.548Z,12.15
2023-03-01T20:09:59.240Z,13.02
2023-03-01T20:12:26.067Z,13.63
2023-03-01T20:14:52.869Z,12.65
2023-03-01T20:17:19.653Z,13.13
2023-03-01T20:19:46.391Z,14.00
2023-03-01T20:22:13.265Z,11.82
2023-03-01T20:24:41.521Z,12.35
2023-03-01T20:27:08.730Z,12.48
2023-03-01T20:29:35.464Z,11.40
2023-03-01T20:32:02.609Z,13.98
2023-03-01T20:34:29.970Z,14.20
2023-03-01T20:36:56.845Z,12.75
2023-03-01T20:39:23.553Z,11.43
2023-03-01T20:41:51.692Z,10.13
2023-03-01T20:44:18.522Z,11.45
2023-03-01T20:46:45.384Z,11.15
2023-03-01T20:49:12.147Z,12.40
2023-03-01T20:51:38.903Z,12.30
2023-03-01T20:54:05.667Z,11.70
2023-03-01T20:56:33.050Z,10.32
2023-03-01T20:59:01.500Z,10.95
2023-03-01T21:01:28.213Z,9.55
2023-03-01T21:03:55.136Z,10.23
2023-03-01T21:06:22.003Z,10.48
2023-03-01T21:08:48.687Z,10.35
2023-03-01T21:11:15.421Z,10.27
2023-03-01T21:13:42.268Z,12.90
2023-03-01T21:16:12.369Z,11.07
2023-03-01T21:18:39.578Z,10.00
2023-03-01T21:21:08.025Z,10.52
2023-03-01T21:23:36.573Z,9.23
2023-03-01T21:26:04.923Z,9.85
2023-03-01T21:28:31.712Z,9.65
2023-03-01T21:31:04.303Z,11.25
2023-03-01T21:33:32.433Z,9.70
2023-03-01T21:36:00.295Z,9.55
2023-03-01T21:38:29.906Z,9.68
2023-03-01T21:40:56.645Z,9.00
2023-03-01T21:43:23.614Z,9.98
2023-03-01T21:45:50.455Z,9.77
2023-03-01T21:48:17.265Z,9.00
2023-03-01T21:50:45.324Z,8.68
2023-03-01T21:53:12.043Z,9.25
2023-03-01T21:55:46.177Z,8.48
2023-03-01T21:58:12.895Z,9.88
2023-03-01T22:00:39.852Z,10.65
2023-03-01T22:03:06.739Z,8.65
2023-03-01T22:05:33.598Z,9.40
2023-03-01T22:08:02.018Z,8.65
2023-03-01T22:10:28.857Z,9.00
2023-03-01T22:12:56.325Z,8.88
2023-03-01T22:15:24.227Z,7.80
2023-03-01T22:17:50.961Z,8.90
2023-03-01T22:20:17.856Z,9.05
2023-03-01T22:22:44.657Z,11.35
2023-03-01T22:25:12.923Z,9.45
2023-03-01T22:27:39.648Z,9.63
2023-03-01T22:30:08.727Z,10.07
2023-03-01T22:32:35.521Z,9.57
2023-03-01T22:35:02.398Z,8.85
2023-03-01T22:37:29.175Z,7.95
2023-03-01T22:39:56.053Z,9.82
2023-03-01T22:42:24.221Z,9.25
2023-03-01T22:44:50.962Z,9.15
2023-03-01T22:47:17.700Z,9.88
2023-03-01T22:49:44.410Z,8.85
2023-03-01T22:52:11.385Z,8.45
2023-03-01T22:54:38.260Z,8.63
2023-03-01T22:57:04.948Z,9.82
2023-03-01T22:59:33.003Z,8.13
2023-03-01T23:01:59.854Z,8.60
2023-03-01T23:04:26.640Z,9.60
2023-03-01T23:06:53.362Z,9.95
2023-03-01T23:09:25.303Z,9.98
2023-03-01T23:11:52.760Z,9.35
2023-03-01T23:14:19.828Z,8.52
2023-03-01T23:16:48.301Z,9.55
2023-03-01T23:19:15.079Z,9.73
2023-03-01T23:21:41.856Z,9.98
2023-03-01T23:24:08.770Z,10.73
2023-03-01T23:26:35.513Z,10.82
2023-03-01T23:29:02.372Z,10.00
2023-03-01T23:31:29.143Z,9.32
2023-03-01T23:33:57.516Z,8.55
2023-03-01T23:36:25.818Z,9.25
2023-03-01T23:38:55.408Z,9.50
2023-03-01T23:41:24.390Z,10.38
2023-03-01T23:43:53.188Z,9.00
2023-03-01T23:46:22.052Z,9.63
2023-03-01T23:48:49.147Z,9.00
2023-03-01T23:51:17.995Z,10.63
2023-03-01T23:53:47.105Z,9.75
2023-03-01T23:56:14.364Z,9.55
2023-03-01T23:58:41.076Z,9.55
